Time;durP1;ratioP1;P1;durP2;ratioP2;P2;SDS_P1;SDS_P2;PMS_P1;PMS_P2;Temp;Humidity;BMP_temperature;BMP_pressure;BME280_temperature;BME280_humidity;BME280_pressure;Samples;Min_cycle;Max_cycle;Signal;HPM_P1;HPM_P2
2022/08/20 00:01:10;;;;;;;5.50;4.90;;;;;;;20.51;72.45;99943.25;5036465;28;20052;-63
2022/08/20 00:03:54;;;;;;;4.90;4.20;;;;;;;20.52;72.27;99929.19;5036142;28;20048;-62
2022/08/20 00:06:40;;;;;;;8.02;5.63;;;;;;;20.51;72.42;99932.72;5021561;28;20087;-62
2022/08/20 00:09:27;;;;;;;6.07;4.32;;;;;;;20.51;72.34;99929.22;5036199;28;20519;-62
2022/08/20 00:12:14;;;;;;;8.85;5.03;;;;;;;20.49;72.28;99928.38;5021186;28;20195;-62
2022/08/20 00:14:58;;;;;;;12.02;5.57;;;;;;;20.51;72.27;99932.72;5021395;28;20053;-63
2022/08/20 00:17:42;;;;;;;6.78;5.25;;;;;;;20.51;72.38;99934.47;5035872;28;20420;-63
2022/08/20 00:20:34;;;;;;;8.75;5.20;;;;;;;20.51;72.52;99934.47;5036325;28;20052;-63
2022/08/20 00:23:19;;;;;;;8.52;6.65;;;;;;;20.48;72.51;99934.56;5021145;28;20463;-62
2022/08/20 00:26:03;;;;;;;10.75;6.97;;;;;;;20.48;72.51;99939.81;5021211;28;20057;-63
2022/08/20 00:28:51;;;;;;;7.03;6.32;;;;;;;20.48;72.24;99937.19;5021087;28;20048;-62
2022/08/20 00:31:38;;;;;;;9.05;6.35;;;;;;;20.47;72.44;99943.38;5020992;28;20435;-62
2022/08/20 00:34:27;;;;;;;7.95;6.72;;;;;;;20.47;72.35;99954.75;5021018;28;20102;-62
2022/08/20 00:37:14;;;;;;;9.40;7.50;;;;;;;20.46;72.42;99939.88;5035830;28;20395;-63
2022/08/20 00:39:58;;;;;;;10.20;7.53;;;;;;;20.46;72.44;99949.56;5021057;28;20052;-63
2022/08/20 00:42:45;;;;;;;8.73;7.18;;;;;;;20.45;72.54;99942.56;5035762;28;20120;-62
2022/08/20 00:45:32;;;;;;;10.32;8.10;;;;;;;20.45;72.23;99947.81;5020988;28;20104;-63
2022/08/20 00:48:16;;;;;;;9.90;7.85;;;;;;;20.43;72.45;99941.72;5020786;28;20587;-63
2022/08/20 00:51:29;;;;;;;7.47;6.70;;;;;;;20.40;72.21;99950.53;5021234;28;20523;-62
2022/08/20 00:54:23;;;;;;;8.73;6.85;;;;;;;20.40;72.32;99945.28;5035458;28;20057;-61
2022/08/20 00:57:11;;;;;;;9.95;6.32;;;;;;;20.38;72.39;99947.97;5035547;28;20518;-62
2022/08/20 01:00:02;;;;;;;12.07;7.53;;;;;;;20.39;72.29;99947.06;5020601;28;20049;-63
2022/08/20 01:02:52;;;;;;;10.68;7.65;;;;;;;20.37;72.04;99951.50;5020211;28;20056;-63
2022/08/20 01:05:43;;;;;;;8.32;6.15;;;;;;;20.35;72.32;99960.34;5020131;28;20404;-62
2022/08/20 01:08:27;;;;;;;8.93;6.22;;;;;;;20.30;72.07;99963.09;5035268;28;20087;-63
2022/08/20 01:11:19;;;;;;;7.50;6.25;;;;;;;20.27;72.28;99954.41;5020497;28;20115;-62
2022/08/20 01:17:06;;;;;;;7.50;6.00;;;;;;;20.23;72.03;99956.25;5034702;28;20108;-61
2022/08/20 01:19:57;;;;;;;8.82;5.43;;;;;;;20.23;71.97;99958.88;5020253;28;20067;-61
2022/08/20 01:26:08;;;;;;;6.22;5.13;;;;;;;20.16;71.85;99945.03;5034906;28;20094;-63
2022/08/20 01:28:55;;;;;;;8.07;5.32;;;;;;;20.19;71.89;99949.34;5019780;28;20052;-62
2022/08/20 01:31:44;;;;;;;6.05;4.90;;;;;;;20.16;71.77;99950.28;5020100;28;20049;-60
2022/08/20 01:34:28;;;;;;;7.68;5.13;;;;;;;20.17;71.60;99946.75;5034835;28;20060;-61
2022/08/20 01:37:15;;;;;;;7.25;4.85;;;;;;;20.13;71.73;99952.13;5020052;28;20064;-61
2022/08/20 01:40:00;;;;;;;6.47;5.15;;;;;;;20.12;71.67;99947.78;5019685;28;20056;-62
2022/08/20 01:42:51;;;;;;;6.80;4.85;;;;;;;20.13;71.45;99954.78;5019288;28;20053;-61
2022/08/20 01:45:38;;;;;;;8.13;4.93;;;;;;;20.08;71.58;99950.47;5034677;28;20103;-62
2022/08/20 01:48:24;;;;;;;7.40;5.15;;;;;;;20.08;71.71;99954.91;5034485;28;20507;-61
2022/08/20 01:51:15;;;;;;;7.05;5.43;;;;;;;20.07;71.43;99958.44;5034329;28;20049;-62
2022/08/20 01:53:59;;;;;;;9.32;5.50;;;;;;;20.06;71.44;99954.91;5019371;28;20056;-60
2022/08/20 01:56:58;;;;;;;11.50;5.63;;;;;;;20.05;71.30;99958.44;5034325;28;20400;-63
2022/08/20 01:59:43;;;;;;;6.43;4.97;;;;;;;20.04;71.42;99958.50;5034113;28;20139;-63
2022/08/20 02:02:27;;;;;;;6.95;4.93;;;;;;;20.05;71.40;99965.47;5019034;28;20504;-62
2022/08/20 02:05:16;;;;;;;8.05;4.78;;;;;;;20.04;71.28;99961.97;5019519;28;20171;-62
2022/08/20 02:08:01;;;;;;;8.63;5.38;;;;;;;20.02;71.31;99966.41;5019084;28;20515;-61
2022/08/20 02:10:48;;;;;;;8.70;5.80;;;;;;;20.02;71.31;99966.41;5034250;28;20103;-61
2022/08/20 02:13:33;;;;;;;9.45;5.53;;;;;;;19.99;71.20;99963.00;5019389;28;20121;-61
2022/08/20 02:16:29;;;;;;;9.82;4.85;;;;;;;19.95;71.06;99962.22;5033826;28;20052;-61
2022/08/20 02:19:18;;;;;;;7.22;5.45;;;;;;;19.95;71.27;99964.84;5033485;28;20048;-61
2022/08/20 02:22:22;;;;;;;7.63;5.43;;;;;;;19.95;70.94;99963.97;5019135;28;20160;-62
2022/08/20 02:25:11;;;;;;;8.63;5.32;;;;;;;19.93;70.99;99969.25;5034259;28;20087;-63
2022/08/20 02:27:56;;;;;;;9.90;6.55;;;;;;;19.93;71.03;99971.91;5033859;28;20566;-62
2022/08/20 02:30:44;;;;;;;9.88;6.25;;;;;;;19.90;71.08;99974.59;5018909;28;20053;-62
2022/08/20 02:33:28;;;;;;;8.43;6.03;;;;;;;19.91;71.24;99976.31;5019201;28;20059;-63
2022/08/20 02:36:14;;;;;;;8.45;5.55;;;;;;;19.91;70.89;99968.44;5033595;28;20056;-62
2022/08/20 02:38:58;;;;;;;9.80;6.22;;;;;;;19.91;70.71;99969.31;5033780;28;20107;-62
2022/08/20 02:41:41;;;;;;;9.15;6.60;;;;;;;19.90;71.00;99975.47;5018842;28;20404;-63
2022/08/20 02:44:25;;;;;;;9.50;6.32;;;;;;;19.89;70.71;99968.47;5033534;28;20526;-62
2022/08/20 02:47:12;;;;;;;8.45;6.40;;;;;;;19.89;70.70;99967.59;5018819;28;20098;-63
2022/08/20 02:49:58;;;;;;;8.38;6.10;;;;;;;19.88;70.68;99969.38;5018782;28;20091;-63
2022/08/20 02:52:43;;;;;;;8.30;6.55;;;;;;;19.87;70.71;99965.03;5018568;28;20510;-63
2022/08/20 02:55:30;;;;;;;9.75;5.45;;;;;;;19.87;70.60;99972.91;5022201;28;20455;-63
2022/08/20 02:58:15;;;;;;;9.80;6.47;;;;;;;19.86;70.48;99972.91;5037552;28;20052;-63
2022/08/20 03:01:01;;;;;;;11.68;6.72;;;;;;;19.81;70.73;99967.75;5022372;28;20048;-62
2022/08/20 03:03:47;;;;;;;10.60;7.18;;;;;;;19.81;70.51;99974.78;5022140;28;20135;-62
2022/08/20 03:06:31;;;;;;;15.55;7.40;;;;;;;19.81;70.27;99977.41;5022384;28;20048;-63
2022/08/20 03:09:15;;;;;;;7.82;6.43;;;;;;;19.82;70.48;99979.16;5037374;28;20516;-62
2022/08/20 03:12:05;;;;;;;13.73;6.60;;;;;;;19.82;70.41;99979.16;5022464;28;20095;-63
2022/08/20 03:14:52;;;;;;;9.85;7.25;;;;;;;19.78;70.26;99979.22;5022444;28;20555;-62
2022/08/20 03:17:39;;;;;;;10.88;6.78;;;;;;;19.77;70.28;99972.22;5037254;28;20048;-62
2022/08/20 03:20:24;;;;;;;8.35;7.18;;;;;;;19.75;70.20;99968.75;5037155;28;20106;-62
2022/08/20 03:23:12;;;;;;;8.63;7.40;;;;;;;19.74;70.17;99981.97;5022294;28;20049;-61
2022/08/20 03:25:57;;;;;;;10.38;7.38;;;;;;;19.71;70.44;99976.75;5022316;28;20057;-63
2022/08/20 03:28:41;;;;;;;11.73;8.20;;;;;;;19.72;70.11;99983.75;5022397;28;20048;-63
2022/08/20 03:31:26;;;;;;;15.38;8.00;;;;;;;19.71;70.19;99974.13;5037195;28;20094;-62
2022/08/20 03:34:10;;;;;;;11.80;7.72;;;;;;;19.68;70.16;99980.34;5037366;28;20463;-61
2022/08/20 03:36:54;;;;;;;11.35;7.65;;;;;;;19.67;70.04;99983.88;5022062;28;20404;-61
2022/08/20 03:39:42;;;;;;;10.77;7.47;;;;;;;19.66;69.87;99990.00;5036745;28;20053;-63
2022/08/20 03:42:26;;;;;;;10.20;7.50;;;;;;;19.66;70.01;99989.13;5021899;28;20052;-63
2022/08/20 03:45:13;;;;;;;16.50;9.20;;;;;;;19.65;69.95;99996.16;5036636;28;20515;-63
2022/08/20 03:48:06;;;;;;;13.07;7.50;;;;;;;19.63;69.99;99992.72;5021729;28;20467;-61
2022/08/20 03:50:52;;;;;;;12.63;7.60;;;;;;;19.63;69.81;99985.66;5022299;28;20124;-61
2022/08/20 03:53:39;;;;;;;12.95;7.95;;;;;;;19.61;69.79;99992.75;5036618;28;20047;-61
2022/08/20 03:56:24;;;;;;;14.50;8.18;;;;;;;19.59;69.59;99984.03;5021734;28;20408;-61
2022/08/20 03:59:08;;;;;;;15.20;8.70;;;;;;;19.61;69.80;99986.63;5021659;28;20048;-61
2022/08/20 04:01:53;;;;;;;15.43;7.25;;;;;;;19.61;69.97;99978.72;5036017;28;20492;-62
2022/08/20 04:04:37;;;;;;;;;;;;;;;19.57;69.74;99980.56;5036293;28;20103;-61
2022/08/20 04:07:26;;;;;;;13.23;8.20;;;;;;;19.56;69.91;99984.09;5021254;28;19975;-61
2022/08/20 04:10:12;;;;;;;14.57;7.53;;;;;;;19.59;69.74;99986.66;5036520;28;20455;-61
2022/08/20 04:12:56;;;;;;;11.98;7.57;;;;;;;19.60;69.72;99984.88;5021528;28;20060;-63
2022/08/20 04:15:41;;;;;;;13.63;7.90;;;;;;;19.62;69.50;99997.09;5036339;28;20144;-61
2022/08/20 04:18:25;;;;;;;12.50;7.30;;;;;;;19.62;69.67;100001.50;5035981;28;20112;-61
2022/08/20 04:21:13;;;;;;;14.95;7.47;;;;;;;19.63;69.65;99998.81;5021482;28;20503;-61
2022/08/20 04:23:57;;;;;;;13.48;7.32;;;;;;;19.61;69.69;100002.38;5021032;28;20401;-62
2022/08/20 04:26:42;;;;;;;14.77;7.45;;;;;;;19.61;69.50;100005.00;5036193;28;20060;-61
2022/08/20 04:29:28;;;;;;;15.73;8.07;;;;;;;19.60;69.47;100006.78;5035921;28;20479;-61
2022/08/20 04:32:12;;;;;;;17.27;8.23;;;;;;;19.60;69.34;100004.16;5021184;28;20463;-61
2022/08/20 04:34:57;;;;;;;11.77;8.48;;;;;;;19.58;69.44;100008.59;5021036;28;20048;-61
2022/08/20 04:37:41;;;;;;;12.80;7.20;;;;;;;19.59;69.31;100007.69;5035590;28;20052;-63
2022/08/20 04:43:34;;;;;;;16.15;10.18;;;;;;;19.58;69.30;100023.47;5035553;28;20067;-62
2022/08/20 04:46:19;;;;;;;14.95;8.10;;;;;;;19.58;69.36;100026.09;5020647;28;20119;-63
2022/08/20 04:49:11;;;;;;;20.30;9.13;;;;;;;19.56;69.31;100027.91;5020735;28;20103;-63
2022/08/20 04:51:58;;;;;;;15.13;8.85;;;;;;;19.55;69.12;100028.78;5035301;28;20049;-62
2022/08/20 04:54:47;;;;;;;25.08;8.70;;;;;;;19.55;69.21;100032.31;5035570;28;20172;-63
2022/08/20 04:57:37;;;;;;;18.23;9.20;;;;;;;19.55;69.04;100031.41;5020477;28;20057;-63
2022/08/20 05:00:22;;;;;;;17.80;8.77;;;;;;;19.54;69.15;100043.72;5020768;28;20082;-62
2022/08/20 05:03:08;;;;;;;19.05;9.00;;;;;;;19.54;69.16;100040.22;5034885;28;20416;-63
2022/08/20 05:05:52;;;;;;;18.42;8.52;;;;;;;19.53;69.25;100046.38;5034872;28;20099;-63
2022/08/20 05:08:37;;;;;;;15.80;8.48;;;;;;;19.54;69.10;100045.50;5035421;28;20460;-63
2022/08/20 05:11:25;;;;;;;18.25;8.07;;;;;;;19.54;69.04;100051.59;5020344;28;20057;-62
2022/08/20 05:14:13;;;;;;;14.23;7.88;;;;;;;19.56;68.98;100043.66;5020271;28;20060;-63
2022/08/20 05:17:03;;;;;;;20.98;8.38;;;;;;;19.53;69.12;100046.38;5034224;28;20052;-63
2022/08/20 05:19:50;;;;;;;15.70;7.72;;;;;;;19.52;68.98;100042.88;5034882;28;20115;-62
2022/08/20 05:22:34;;;;;;;15.98;7.75;;;;;;;19.50;68.82;100046.44;5035009;28;20400;-62
2022/08/20 05:25:21;;;;;;;16.25;8.25;;;;;;;19.48;68.97;100054.34;5034634;28;20088;-62
2022/08/20 05:28:11;;;;;;;16.95;9.23;;;;;;;19.45;68.94;100064.94;5019982;28;20049;-61
2022/08/20 05:30:58;;;;;;;17.52;9.65;;;;;;;19.45;68.92;100068.41;5019927;28;20048;-61
2022/08/20 05:33:42;;;;;;;20.52;9.73;;;;;;;19.43;68.84;100059.69;5020082;28;20107;-60
2022/08/20 05:36:26;;;;;;;14.88;8.95;;;;;;;19.45;68.99;100057.06;5034804;28;20136;-62
2022/08/20 05:39:12;;;;;;;16.95;8.63;;;;;;;19.43;68.81;100058.84;5019618;28;20421;-63
2022/08/20 05:41:56;;;;;;;30.90;11.93;;;;;;;19.40;68.88;100067.63;5034307;28;20068;-61
2022/08/20 05:44:40;;;;;;;25.00;10.65;;;;;;;19.35;68.80;100059.00;5034127;28;20107;-60
2022/08/20 05:47:27;;;;;;;20.70;9.77;;;;;;;19.38;68.97;100060.69;5019421;28;20495;-61
2022/08/20 05:50:16;;;;;;;24.05;10.10;;;;;;;19.37;68.77;100057.22;5019674;28;20500;-61
2022/08/20 05:53:00;;;;;;;23.48;9.95;;;;;;;19.40;68.90;100059.75;5034287;28;20107;-61
2022/08/20 05:55:44;;;;;;;19.45;9.32;;;;;;;19.37;68.99;100065.09;5019305;28;20103;-63
2022/08/20 05:58:31;;;;;;;23.45;9.50;;;;;;;19.35;69.02;100063.38;5033764;28;20053;-63
2022/08/20 06:01:15;;;;;;;27.30;10.18;;;;;;;19.35;68.91;100066.88;5019572;28;20505;-62
2022/08/20 06:07:07;;;;;;;17.50;9.60;;;;;;;19.33;68.89;100090.53;5033704;28;20056;-62
2022/08/20 06:09:51;;;;;;;22.23;10.70;;;;;;;19.33;69.04;100082.66;5019096;28;20107;-62
2022/08/20 06:12:35;;;;;;;19.45;8.82;;;;;;;19.33;68.61;100082.66;5034251;28;20064;-63
2022/08/20 06:15:19;;;;;;;20.75;8.50;;;;;;;19.34;68.82;100086.16;5019247;28;20053;-61
2022/08/20 06:18:08;;;;;;;28.00;11.15;;;;;;;19.32;68.68;100080.06;5033651;28;20523;-61
2022/08/20 06:20:53;;;;;;;22.80;9.30;;;;;;;19.34;68.57;100088.78;5019126;28;20137;-61
2022/08/20 06:23:37;;;;;;;32.42;10.50;;;;;;;19.33;68.68;100077.41;5018702;28;20074;-61
2022/08/20 06:26:21;;;;;;;23.77;10.98;;;;;;;19.33;68.84;100076.56;5019246;28;20049;-61
2022/08/20 06:29:05;;;;;;;25.45;10.63;;;;;;;19.31;68.79;100073.94;5033853;28;20056;-62
2022/08/20 06:31:51;;;;;;;28.85;11.77;;;;;;;19.30;68.93;100081.88;5034142;28;20048;-62
2022/08/20 06:34:35;;;;;;;24.20;10.15;;;;;;;19.31;68.79;100084.44;5018800;28;20107;-62
2022/08/20 06:37:26;;;;;;;21.23;10.90;;;;;;;19.30;68.63;100084.50;5033908;28;20067;-62
2022/08/20 06:40:15;;;;;;;26.00;11.70;;;;;;;19.31;68.67;100087.06;5019126;28;20091;-62
2022/08/20 06:42:59;;;;;;;25.02;10.55;;;;;;;19.29;68.63;100086.25;5018757;28;20507;-62
2022/08/20 06:45:45;;;;;;;26.90;10.63;;;;;;;19.29;68.72;100086.25;5033811;28;20103;-63
2022/08/20 06:48:30;;;;;;;26.33;9.95;;;;;;;19.27;68.59;100080.16;5019219;28;20052;-62
2022/08/20 06:51:14;;;;;;;24.67;10.60;;;;;;;19.28;68.85;100083.66;5033162;28;20048;-62
2022/08/20 06:54:00;;;;;;;23.13;11.73;;;;;;;19.25;68.70;100087.22;5033815;28;20490;-63
2022/08/20 06:56:45;;;;;;;27.92;11.00;;;;;;;19.24;68.77;100081.97;5018686;28;20052;-62
2022/08/20 06:59:30;;;;;;;23.88;11.20;;;;;;;19.22;68.76;100075.91;5018919;28;20112;-62
2022/08/20 07:02:14;;;;;;;26.75;9.95;;;;;;;19.21;68.86;100076.81;5032886;28;20563;-63
2022/08/20 07:04:58;;;;;;;28.23;11.48;;;;;;;19.20;68.86;100080.31;5033558;28;20104;-63
2022/08/20 07:07:49;;;;;;;28.15;13.23;;;;;;;19.20;68.69;100080.31;5018880;28;20052;-63
2022/08/20 07:10:37;;;;;;;29.10;12.88;;;;;;;19.22;68.64;100086.41;5018528;28;20052;-62
2022/08/20 07:13:21;;;;;;;36.72;12.27;;;;;;;19.22;68.82;100074.13;5018245;28;20052;-61
2022/08/20 07:16:05;;;;;;;33.97;12.95;;;;;;;19.22;68.93;100083.78;5033512;28;20060;-62
2022/08/20 07:18:52;;;;;;;;;;;;;;;19.21;68.80;100082.06;5033550;28;20091;-62
2022/08/20 07:21:36;;;;;;;36.15;13.50;;;;;;;19.19;68.95;100087.31;5033179;28;20335;-62
2022/08/20 07:24:20;;;;;;;31.90;14.13;;;;;;;19.18;68.90;100090.84;5033186;28;20047;-62
2022/08/20 07:27:04;;;;;;;33.33;15.18;;;;;;;19.17;68.97;100091.72;5033021;28;20076;-62
2022/08/20 07:32:58;;;;;;;33.58;14.27;;;;;;;19.19;69.04;100102.22;5033333;28;20049;-62
2022/08/20 07:35:47;;;;;;;29.55;13.52;;;;;;;19.19;68.90;100112.75;5032854;28;20053;-62
2022/08/20 07:38:33;;;;;;;30.33;14.90;;;;;;;19.19;68.83;100112.75;5032985;28;20121;-61
2022/08/20 07:41:20;;;;;;;36.17;14.80;;;;;;;19.21;68.88;100113.56;5021146;28;20107;-61
2022/08/20 07:44:07;;;;;;;32.25;14.70;;;;;;;19.20;68.95;100114.47;5036791;28;20555;-61
2022/08/20 07:46:57;;;;;;;25.38;12.05;;;;;;;19.22;69.03;100116.16;5036605;28;20172;-62
2022/08/20 07:49:46;;;;;;;31.50;14.00;;;;;;;19.21;69.08;100124.09;5036274;28;20053;-61
2022/08/20 07:52:36;;;;;;;33.13;15.18;;;;;;;19.20;68.92;100127.59;5036866;28;20068;-61
2022/08/20 07:55:23;;;;;;;33.15;15.73;;;;;;;19.17;69.02;100133.75;5021747;28;20044;-61
2022/08/20 07:58:14;;;;;;;32.70;16.20;;;;;;;19.19;69.02;100129.34;5021632;28;20121;-62
2022/08/20 08:01:01;;;;;;;26.40;14.93;;;;;;;19.20;68.89;100136.34;5036491;28;20416;-61
2022/08/20 08:03:50;;;;;;;36.53;16.42;;;;;;;19.19;68.82;100134.59;5021373;28;20469;-61
2022/08/20 08:06:44;;;;;;;43.75;17.00;;;;;;;19.16;68.89;100138.16;5021662;28;20164;-63
2022/08/20 08:09:31;;;;;;;33.22;17.38;;;;;;;19.15;69.03;100133.81;5021659;28;20053;-62
2022/08/20 08:12:16;;;;;;;30.30;16.83;;;;;;;19.16;68.85;100146.03;5021750;28;20080;-63
2022/08/20 08:15:01;;;;;;;31.40;16.52;;;;;;;19.15;68.92;100144.31;5036051;28;20084;-62
2022/08/20 08:17:47;;;;;;;39.40;17.27;;;;;;;19.15;68.92;100132.94;5021434;28;20473;-63
2022/08/20 08:20:32;;;;;;;40.08;15.88;;;;;;;19.13;69.19;100127.69;5021347;28;20099;-61
2022/08/20 08:23:16;;;;;;;31.15;16.48;;;;;;;19.14;68.99;100134.69;5035981;28;20048;-61
2022/08/20 08:26:01;;;;;;;33.65;17.02;;;;;;;19.15;69.12;100136.44;5035844;28;20164;-61
2022/08/20 08:28:45;;;;;;;30.92;17.52;;;;;;;19.15;68.98;100138.19;5021232;28;20048;-61
2022/08/20 08:31:32;;;;;;;36.30;18.52;;;;;;;19.16;69.05;100153.03;5036117;28;20111;-61
2022/08/20 08:34:16;;;;;;;39.85;18.45;;;;;;;19.16;69.01;100146.03;5035914;28;20052;-61
2022/08/20 08:37:01;;;;;;;37.63;18.35;;;;;;;19.17;69.01;100154.78;5035934;28;20049;-61
2022/08/20 08:39:48;;;;;;;35.25;18.02;;;;;;;19.16;69.14;100147.78;5021235;28;20048;-61
2022/08/20 08:42:46;;;;;;;30.65;17.25;;;;;;;19.15;69.25;100151.34;5020484;28;20092;-61
2022/08/20 08:45:44;;;;;;;28.33;17.88;;;;;;;19.14;69.09;100155.72;5035846;28;20048;-62
2022/08/20 08:48:37;;;;;;;35.20;17.48;;;;;;;19.13;69.00;100159.22;5035834;28;20048;-61
2022/08/20 08:51:50;;;;;;;32.37;17.20;;;;;;;19.13;69.25;100163.63;5019779;28;20049;-61
2022/08/20 08:54:35;;;;;;;33.95;18.95;;;;;;;19.15;69.14;100156.59;5035325;28;20139;-61
2022/08/20 08:57:22;;;;;;;29.80;17.55;;;;;;;19.14;69.29;100155.72;5020769;28;20396;-61
2022/08/20 09:00:13;;;;;;;33.13;18.95;;;;;;;19.15;69.37;100160.06;5020537;28;20095;-62
2022/08/20 09:03:11;;;;;;;33.38;16.70;;;;;;;19.15;69.00;100151.34;5034989;28;20520;-61
2022/08/20 09:05:59;;;;;;;34.08;18.00;;;;;;;19.14;69.42;100154.84;5020599;28;20048;-61
2022/08/20 09:08:51;;;;;;;32.00;17.27;;;;;;;19.16;69.25;100155.66;5020440;28;20052;-61
2022/08/20 09:11:52;;;;;;;38.08;19.42;;;;;;;19.17;69.32;100162.66;5020388;28;20456;-61
2022/08/20 09:14:40;;;;;;;34.10;19.90;;;;;;;19.15;69.42;100160.06;5020305;28;20052;-61
2022/08/20 09:17:24;;;;;;;37.10;20.83;;;;;;;19.15;69.38;100160.06;5034799;28;20171;-61
2022/08/20 09:20:14;;;;;;;39.63;19.63;;;;;;;19.16;69.31;100161.81;5020257;28;20053;-62
2022/08/20 09:22:58;;;;;;;38.33;19.95;;;;;;;19.19;69.48;100170.53;5020046;28;20084;-61
2022/08/20 09:25:42;;;;;;;39.60;21.08;;;;;;;19.19;69.67;100160.03;5034685;28;20137;-63
2022/08/20 09:28:26;;;;;;;36.00;19.65;;;;;;;19.21;69.60;100160.88;5034730;28;20048;-62
2022/08/20 09:31:13;;;;;;;40.63;20.50;;;;;;;19.21;69.42;100158.25;5034645;28;20048;-61
2022/08/20 09:34:00;;;;;;;41.20;20.58;;;;;;;19.20;69.81;100159.97;5019996;28;20048;-61
2022/08/20 09:36:47;;;;;;;38.88;19.08;;;;;;;19.22;69.63;100157.34;5034784;28;20053;-62
2022/08/20 09:39:34;;;;;;;33.42;17.30;;;;;;;19.22;69.74;100157.34;5019954;28;20482;-61
2022/08/20 09:42:28;;;;;;;29.83;16.55;;;;;;;19.26;69.88;100169.50;5020032;28;20079;-62
2022/08/20 09:45:15;;;;;;;30.48;16.15;;;;;;;19.29;69.62;100164.19;5034655;28;20084;-61
2022/08/20 09:48:05;;;;;;;28.98;15.68;;;;;;;19.35;69.87;100163.22;5019401;28;20122;-61
2022/08/20 09:50:54;;;;;;;29.63;15.43;;;;;;;19.38;69.75;100166.69;5019502;28;20083;-61
2022/08/20 09:53:38;;;;;;;21.75;13.27;;;;;;;19.40;69.71;100159.59;5034579;28;20053;-61
2022/08/20 09:56:28;;;;;;;27.63;15.00;;;;;;;19.41;69.46;100161.34;5034453;28;20406;-61
2022/08/20 09:59:17;;;;;;;25.13;15.45;;;;;;;19.44;69.50;100158.66;5019613;28;20091;-61
2022/08/20 10:02:02;;;;;;;30.75;14.32;;;;;;;19.46;69.76;100153.41;5019485;28;20115;-62
2022/08/20 10:04:48;;;;;;;;;;;;;;;19.47;69.38;100145.47;5034317;28;20048;-61
2022/08/20 10:07:36;;;;;;;21.98;12.80;;;;;;;19.47;69.42;100142.84;5019032;28;19924;-61
2022/08/20 10:10:20;;;;;;;22.23;12.43;;;;;;;19.52;69.17;100155.03;5033961;28;20408;-61
2022/08/20 10:13:04;;;;;;;34.50;12.38;;;;;;;19.55;69.50;100154.97;5019259;28;20064;-62
2022/08/20 10:15:56;;;;;;;27.55;12.13;;;;;;;19.56;69.01;100151.44;5033834;28;20060;-63
2022/08/20 10:18:48;;;;;;;23.90;11.52;;;;;;;19.58;69.10;100147.00;5019123;28;20056;-63
2022/08/20 10:21:32;;;;;;;23.35;11.50;;;;;;;19.61;69.04;100154.84;5018873;28;20096;-62
2022/08/20 10:24:22;;;;;;;20.75;11.27;;;;;;;19.61;68.78;100162.72;5033694;28;20546;-62
2022/08/20 10:27:06;;;;;;;18.20;10.27;;;;;;;19.60;69.10;100161.00;5019241;28;20507;-62
2022/08/20 10:29:55;;;;;;;21.98;10.13;;;;;;;19.62;69.05;100161.84;5033959;28;20516;-62
2022/08/20 10:32:42;;;;;;;17.95;10.43;;;;;;;19.62;69.03;100159.22;5018855;28;20562;-62
2022/08/20 10:35:29;;;;;;;20.55;10.07;;;;;;;19.62;68.89;100160.06;5033544;28;20076;-62
2022/08/20 10:38:21;;;;;;;20.70;10.18;;;;;;;19.63;68.88;100156.53;5018934;28;20052;-63
2022/08/20 10:41:14;;;;;;;18.88;9.57;;;;;;;19.66;68.85;100157.38;5018849;28;20468;-62
2022/08/20 10:44:06;;;;;;;19.50;8.98;;;;;;;19.67;68.74;100152.09;5033619;28;20468;-62
2022/08/20 10:47:11;;;;;;;17.10;9.32;;;;;;;19.68;68.73;100145.06;5018998;28;20107;-63
2022/08/20 10:50:03;;;;;;;17.20;8.98;;;;;;;19.70;68.95;100154.66;5018588;28;20392;-63
2022/08/20 10:52:47;;;;;;;20.20;8.45;;;;;;;19.72;68.87;100159.91;5033696;28;20401;-63
2022/08/20 10:55:31;;;;;;;17.75;8.13;;;;;;;19.73;68.78;100154.59;5033056;28;20554;-62
2022/08/20 10:58:18;;;;;;;23.70;7.95;;;;;;;19.75;68.72;100146.69;5018713;28;20076;-63
2022/08/20 11:01:04;;;;;;;18.85;8.10;;;;;;;19.74;68.59;100139.69;5034127;28;20109;-62
2022/08/20 11:03:56;;;;;;;15.98;7.63;;;;;;;19.76;68.44;100138.75;4993495;28;20485;-62
2022/08/20 11:06:40;;;;;;;14.57;7.07;;;;;;;19.75;68.49;100134.41;4993304;28;20052;-62
2022/08/20 11:09:27;;;;;;;15.95;7.20;;;;;;;19.76;68.58;100133.50;4993907;28;20136;-62
2022/08/20 11:12:18;;;;;;;19.08;7.28;;;;;;;19.75;68.48;100137.03;4993239;28;20068;-62
2022/08/20 11:15:03;;;;;;;12.80;6.50;;;;;;;19.76;68.54;100128.25;4994983;28;20065;-61
2022/08/20 11:17:51;;;;;;;13.85;5.78;;;;;;;19.76;68.42;100132.66;4997177;28;20059;-61
2022/08/20 11:20:35;;;;;;;11.88;5.88;;;;;;;19.76;68.57;100135.28;4997970;28;20105;-63
2022/08/20 11:23:24;;;;;;;18.70;6.55;;;;;;;19.77;68.08;100137.88;4996974;28;20496;-61
2022/08/20 11:26:09;;;;;;;14.85;6.05;;;;;;;19.77;67.99;100140.50;4997054;28;20136;-61
2022/08/20 11:28:53;;;;;;;14.80;5.93;;;;;;;19.75;68.07;100142.28;4997762;28;20045;-61
2022/08/20 11:31:37;;;;;;;16.15;5.72;;;;;;;19.74;68.22;100139.69;4996686;28;20445;-61
2022/08/20 11:34:23;;;;;;;13.55;6.03;;;;;;;19.75;68.01;100136.19;4997621;28;20050;-61
2022/08/20 11:37:12;;;;;;;13.98;5.90;;;;;;;19.72;67.92;100131.84;4997764;28;20056;-62
2022/08/20 11:39:59;;;;;;;10.55;5.30;;;;;;;19.73;68.08;100133.56;4996514;28;20117;-61
2022/08/20 11:42:43;;;;;;;18.65;6.15;;;;;;;19.72;67.93;100131.84;4996677;28;20151;-61
2022/08/20 11:45:30;;;;;;;13.27;4.75;;;;;;;19.72;67.91;100130.97;4997199;28;20045;-62
2022/08/20 11:48:17;;;;;;;14.20;6.05;;;;;;;19.73;67.81;100136.19;4996473;28;20045;-61
2022/08/20 11:51:01;;;;;;;11.93;4.68;;;;;;;19.74;67.73;100130.03;4996580;28;20412;-61
2022/08/20 11:53:51;;;;;;;9.32;4.22;;;;;;;19.76;67.72;100127.41;4996785;28;20421;-61
2022/08/20 11:56:35;;;;;;;16.13;5.00;;;;;;;19.77;67.64;100127.34;4996600;28;20397;-61
2022/08/20 11:59:19;;;;;;;7.60;3.80;;;;;;;19.77;67.46;100127.34;4997173;28;20052;-61
2022/08/20 12:02:03;;;;;;;10.70;3.92;;;;;;;19.80;67.70;100115.91;5005953;28;20068;-61
2022/08/20 12:04:50;;;;;;;10.73;4.47;;;;;;;19.81;67.39;100122.03;5036211;28;20064;-61
2022/08/20 12:07:34;;;;;;;9.13;3.40;;;;;;;19.82;67.34;100110.63;5021770;28;20060;-61
2022/08/20 12:10:25;;;;;;;10.98;4.20;;;;;;;19.84;67.22;100119.34;5036280;28;20179;-61
2022/08/20 12:13:09;;;;;;;9.75;3.63;;;;;;;19.85;67.10;100115.81;5021699;28;20084;-61
2022/08/20 12:16:01;;;;;;;8.73;3.35;;;;;;;19.85;67.12;100121.09;5035979;28;20064;-63
2022/08/20 12:18:46;;;;;;;8.88;3.10;;;;;;;19.86;66.92;100120.16;5021372;28;20528;-61
2022/08/20 12:21:32;;;;;;;12.57;3.58;;;;;;;19.86;66.97;100123.66;5021062;28;20072;-61
2022/08/20 12:24:19;;;;;;;9.20;3.72;;;;;;;19.84;66.79;100124.59;5035893;28;20404;-62
2022/08/20 12:27:12;;;;;;;9.88;3.25;;;;;;;19.86;66.84;100126.28;5020940;28;20048;-62
2022/08/20 12:29:59;;;;;;;11.38;2.80;;;;;;;19.84;66.45;100127.25;5021124;28;20055;-62
2022/08/20 12:32:46;;;;;;;7.00;2.50;;;;;;;19.85;66.75;100126.34;5021118;28;20044;-63
2022/08/20 12:35:31;;;;;;;7.43;2.97;;;;;;;19.82;66.54;100111.47;5020778;28;20048;-61
2022/08/20 12:38:15;;;;;;;7.80;3.03;;;;;;;19.83;66.77;100118.47;5035884;28;20515;-61
2022/08/20 12:41:00;;;;;;;8.90;2.53;;;;;;;19.85;66.58;100114.03;5020768;28;20080;-61
2022/08/20 12:43:43;;;;;;;10.45;2.70;;;;;;;19.84;66.63;100114.09;5020738;28;20051;-61
2022/08/20 12:46:33;;;;;;;8.23;3.05;;;;;;;19.85;66.25;100110.56;5035523;28;20111;-61
2022/08/20 12:49:26;;;;;;;9.68;3.15;;;;;;;19.83;66.44;100110.56;5020584;28;20052;-61
2022/08/20 12:52:11;;;;;;;11.18;3.03;;;;;;;19.85;66.29;100110.56;5020502;28;20079;-61
2022/08/20 12:55:02;;;;;;;8.10;3.03;;;;;;;19.84;66.11;100103.56;5035733;28;20072;-62
2022/08/20 12:57:59;;;;;;;6.93;2.97;;;;;;;19.85;66.04;100105.31;5020522;28;20052;-61
2022/08/20 13:00:47;;;;;;;11.68;2.72;;;;;;;19.86;65.92;100101.75;5020632;28;20099;-61
2022/08/20 13:03:37;;;;;;;11.10;3.00;;;;;;;19.87;66.00;100109.66;5035228;28;20060;-61
2022/08/20 13:06:30;;;;;;;11.23;2.65;;;;;;;19.87;65.95;100111.41;5020480;28;20048;-62